Merida, Spain
Current Conditions -  °F | °C
As of 4:00 AM on Sunday 26 Oct 2014 (Local Time) from LEBZ Reporting Station
Clear Clear  
Wind Chill: 55°   Ceiling: Unl
Heat Index: 55°   Visibility: 6mi
Dew Point: 50°   Wind: 1mph
Humidity: 82%   Direction: 160°SSE
Pressure: 30.12"   Gusts: NA
Location:  38.92°N, 6.35°W
Report Text: LEBZ 260200Z AUTO 16001KT CAVOK 13/10 Q1020
Loading
Personal Weather Stations






























Interactive Weather Map
Tropical Storm Tracking
New forecast layout! Learn more

10-Day Weather Forecast

Advertisements
Track Severe Weather on mobile